Wetterdaten: aktuell Samstag, 18.09.2021 16:30
Datum Zeit Temp. A. Feuchte A. Luftdruck Regen Wind Richtung Richtung Windben
18.09.2021 16:30 20,2 C 48 % 1013,9 hPa 0,0 l/m 0,0 km/h S 174 0,0 km/h
18.09.2021 16:24 20,2 C 51 % 1013,9 hPa 0,0 l/m 0,0 km/h S 174 0,0 km/h
18.09.2021 16:20 20,2 C 51 % 1013,9 hPa 0,0 l/m 0,0 km/h S 174 0,0 km/h
18.09.2021 16:19 20,3 C 51 % 1013,9 hPa 0,0 l/m 0,1 km/h S 174 1,6 km/h
18.09.2021 16:15 20,2 C 53 % 1013,9 hPa 0,0 l/m 0,0 km/h S 174 0,0 km/h
18.09.2021 16:10 20,3 C 52 % 1014,0 hPa 0,0 l/m 0,0 km/h S 174 0,0 km/h
18.09.2021 16:05 20,4 C 50 % 1014,0 hPa 0,0 l/m 0,0 km/h S 174 0,0 km/h
18.09.2021 16:00 20,7 C 49 % 1014,0 hPa 0,0 l/m 0,0 km/h S 174 0,0 km/h
18.09.2021 15:59 20,7 C 49 % 1014,0 hPa 0,0 l/m 0,0 km/h S 174 0,0 km/h
18.09.2021 15:55 20,9 C 47 % 1014,0 hPa 0,0 l/m 0,0 km/h S-SO 167 0,0 km/h
18.09.2021 15:54 20,9 C 47 % 1013,9 hPa 0,0 l/m 0,0 km/h S-SO 167 0,0 km/h
18.09.2021 15:50 21,0 C 47 % 1014,0 hPa 0,0 l/m 0,0 km/h S-SO 167 0,0 km/h
18.09.2021 15:45 21,1 C 47 % 1014,0 hPa 0,0 l/m 0,0 km/h S 173 0,0 km/h
18.09.2021 15:40 21,2 C 49 % 1014,0 hPa 0,0 l/m 0,0 km/h S 173 1,6 km/h
18.09.2021 15:35 21,2 C 47 % 1014,0 hPa 0,0 l/m 0,0 km/h S 181 0,0 km/h
18.09.2021 15:34 21,2 C 47 % 1014,0 hPa 0,0 l/m 0,0 km/h S 181 0,0 km/h
18.09.2021 15:30 21,2 C 50 % 1014,1 hPa 0,0 l/m 0,0 km/h S 181 0,0 km/h
18.09.2021 15:29 21,2 C 50 % 1014,1 hPa 0,0 l/m 0,0 km/h S 181 0,0 km/h
18.09.2021 15:25 21,2 C 49 % 1014,1 hPa 0,0 l/m 0,0 km/h S 175 0,0 km/h
18.09.2021 15:20 21,3 C 47 % 1014,1 hPa 0,0 l/m 0,0 km/h S 173 0,0 km/h
18.09.2021 15:15 21,4 C 45 % 1014,1 hPa 0,0 l/m 0,0 km/h S-SW 212 0,0 km/h
18.09.2021 15:10 21,8 C 44 % 1014,1 hPa 0,0 l/m 0,0 km/h S 175 0,0 km/h
18.09.2021 15:09 21,8 C 44 % 1014,1 hPa 0,0 l/m 0,0 km/h S 185 1,6 km/h
18.09.2021 15:04 21,9 C 44 % 1014,1 hPa 0,0 l/m 0,0 km/h S 183 0,0 km/h
18.09.2021 15:00 21,6 C 47 % 1014,1 hPa 0,0 l/m 0,0 km/h S-SO 161 0,0 km/h
18.09.2021 14:55 21,2 C 47 % 1014,1 hPa 0,0 l/m 0,0 km/h NW 315 0,0 km/h
18.09.2021 14:50 20,8 C 44 % 1014,2 hPa 0,0 l/m 0,0 km/h NW 318 0,0 km/h
18.09.2021 14:45 20,8 C 47 % 1014,3 hPa 0,0 l/m 0,0 km/h NW 316 0,0 km/h
18.09.2021 14:44 20,7 C 46 % 1014,3 hPa 0,0 l/m 0,0 km/h NW 307 0,0 km/h
18.09.2021 14:40 20,7 C 45 % 1014,3 hPa 0,0 l/m 0,0 km/h N-NW 346 0,0 km/h
18.09.2021 14:35 20,6 C 44 % 1014,3 hPa 0,0 l/m 0,0 km/h N-NW 333 0,0 km/h
18.09.2021 14:30 20,6 C 46 % 1014,3 hPa 0,0 l/m 0,0 km/h N-NW 327 0,0 km/h
18.09.2021 14:29 20,6 C 46 % 1014,3 hPa 0,0 l/m 0,0 km/h N 356 0,0 km/h
18.09.2021 14:25 20,6 C 45 % 1014,4 hPa 0,0 l/m 0,0 km/h N-NO 17 0,0 km/h
18.09.2021 14:20 20,3 C 45 % 1014,4 hPa 0,0 l/m 0,0 km/h N-NO 17 0,0 km/h
18.09.2021 14:19 20,3 C 45 % 1014,4 hPa 0,0 l/m 0,2 km/h N-NO 23 6,4 km/h
18.09.2021 14:15 20,3 C 48 % 1014,5 hPa 0,0 l/m 0,0 km/h N-NO 25 0,0 km/h
18.09.2021 14:14 20,3 C 48 % 1014,5 hPa 0,0 l/m 0,0 km/h N-NO 30 0,0 km/h
18.09.2021 14:10 20,6 C 45 % 1014,5 hPa 0,0 l/m 0,0 km/h N-NO 29 0,0 km/h
18.09.2021 14:05 20,9 C 44 % 1014,4 hPa 0,0 l/m 0,1 km/h N-NO 21 3,2 km/h
18.09.2021 14:00 21,6 C 44 % 1014,5 hPa 0,0 l/m 0,2 km/h W-NW 293 6,4 km/h
18.09.2021 13:55 21,7 C 46 % 1014,4 hPa 0,0 l/m 0,0 km/h O 81 0,0 km/h
18.09.2021 13:54 21,7 C 46 % 1014,5 hPa 0,0 l/m 0,0 km/h O 81 0,0 km/h
18.09.2021 13:50 22,0 C 48 % 1014,5 hPa 0,0 l/m 0,0 km/h S-SW 192 0,0 km/h
18.09.2021 13:49 22,0 C 48 % 1014,5 hPa 0,0 l/m 0,0 km/h S-SW 192 0,0 km/h
18.09.2021 13:45 22,2 C 48 % 1014,5 hPa 0,0 l/m 0,0 km/h S-SW 213 1,6 km/h
18.09.2021 13:40 22,3 C 45 % 1014,5 hPa 0,0 l/m 0,1 km/h S-SO 150 3,2 km/h
18.09.2021 13:35 22,2 C 48 % 1014,6 hPa 0,0 l/m 0,0 km/h SW 216 0,0 km/h
18.09.2021 13:30 22,0 C 45 % 1014,6 hPa 0,0 l/m 0,0 km/h S-SW 205 0,0 km/h
18.09.2021 13:29 22,0 C 47 % 1014,6 hPa 0,0 l/m 0,0 km/h S 190 0,0 km/h
18.09.2021 13:25 22,1 C 45 % 1014,6 hPa 0,0 l/m 0,1 km/h S 171 3,2 km/h
18.09.2021 13:20 21,9 C 48 % 1014,7 hPa 0,0 l/m 0,0 km/h S-SO 161 0,0 km/h
18.09.2021 13:15 21,7 C 49 % 1014,7 hPa 0,0 l/m 0,0 km/h S-SW 208 1,6 km/h
18.09.2021 13:10 21,2 C 49 % 1014,7 hPa 0,0 l/m 0,0 km/h S 173 0,0 km/h
18.09.2021 13:09 21,2 C 49 % 1014,7 hPa 0,0 l/m 0,1 km/h S 185 1,6 km/h
18.09.2021 13:05 21,1 C 51 % 1014,7 hPa 0,0 l/m 0,0 km/h S 185 0,0 km/h
18.09.2021 13:04 21,1 C 51 % 1014,7 hPa 0,0 l/m 0,0 km/h S 185 0,0 km/h
18.09.2021 13:00 20,7 C 52 % 1014,8 hPa 0,0 l/m 0,0 km/h S-SW 208 3,2 km/h
18.09.2021 12:55 20,4 C 47 % 1014,8 hPa 0,0 l/m 0,1 km/h SO 137 1,6 km/h
18.09.2021 12:50 20,2 C 50 % 1014,9 hPa 0,0 l/m 0,0 km/h O-SO 113 0,0 km/h
18.09.2021 12:49 20,2 C 48 % 1014,9 hPa 0,0 l/m 0,0 km/h O-SO 113 0,0 km/h
18.09.2021 12:45 20,1 C 49 % 1014,9 hPa 0,0 l/m 0,0 km/h O-SO 113 0,0 km/h
18.09.2021 12:40 20,2 C 45 % 1014,9 hPa 0,0 l/m 0,0 km/h NW 305 0,0 km/h
18.09.2021 12:35 20,6 C 47 % 1014,9 hPa 0,0 l/m 0,0 km/h N-NW 332 0,0 km/h
18.09.2021 12:30 21,2 C 43 % 1014,9 hPa 0,0 l/m 0,0 km/h N-NW 332 0,0 km/h
18.09.2021 12:29 21,3 C 47 % 1014,9 hPa 0,0 l/m 0,0 km/h W-NW 297 0,0 km/h
18.09.2021 12:25 21,7 C 42 % 1014,9 hPa 0,0 l/m 0,2 km/h O-SO 113 3,2 km/h
18.09.2021 12:20 22,1 C 46 % 1014,9 hPa 0,0 l/m 0,2 km/h NO 53 1,6 km/h
18.09.2021 12:19 22,1 C 45 % 1014,9 hPa 0,0 l/m 0,1 km/h NO 53 3,2 km/h
18.09.2021 12:15 21,8 C 49 % 1014,9 hPa 0,0 l/m 0,0 km/h SW 214 0,0 km/h
18.09.2021 12:14 21,8 C 47 % 1014,9 hPa 0,0 l/m 0,0 km/h SW 214 0,0 km/h
18.09.2021 12:10 21,0 C 50 % 1015,0 hPa 0,0 l/m 0,0 km/h S 170 0,0 km/h
18.09.2021 12:05 20,6 C 46 % 1015,0 hPa 0,0 l/m 0,0 km/h S 190 0,0 km/h
18.09.2021 11:59 21,1 C 43 % 1015,0 hPa 0,0 l/m 2,5 km/h W-NW 298 17,7 km/h
18.09.2021 11:55 21,2 C 50 % 1015,0 hPa 0,0 l/m 0,1 km/h S 188 3,2 km/h
18.09.2021 11:50 20,9 C 50 % 1015,0 hPa 0,0 l/m 0,0 km/h S 191 0,0 km/h
18.09.2021 11:49 20,9 C 48 % 1015,0 hPa 0,0 l/m 0,0 km/h S 191 0,0 km/h
18.09.2021 11:45 20,8 C 48 % 1015,1 hPa 0,0 l/m 0,0 km/h S 190 0,0 km/h
18.09.2021 11:44 20,8 C 48 % 1015,1 hPa 0,0 l/m 0,0 km/h S 190 1,6 km/h
18.09.2021 11:40 20,9 C 48 % 1015,3 hPa 0,0 l/m 0,0 km/h S 177 0,0 km/h
18.09.2021 11:35 20,8 C 51 % 1015,2 hPa 0,0 l/m 0,1 km/h S 174 1,6 km/h
18.09.2021 11:30 20,7 C 54 % 1015,3 hPa 0,0 l/m 0,1 km/h S-SW 196 1,6 km/h
18.09.2021 11:24 20,5 C 50 % 1015,4 hPa 0,0 l/m 0,2 km/h S 176 6,4 km/h
18.09.2021 11:20 20,5 C 50 % 1015,4 hPa 0,0 l/m 0,1 km/h S 182 4,8 km/h
18.09.2021 11:15 20,5 C 55 % 1015,5 hPa 0,0 l/m 0,0 km/h S-SW 204 0,0 km/h
18.09.2021 11:14 20,5 C 55 % 1015,4 hPa 0,0 l/m 0,0 km/h S-SW 211 1,6 km/h
18.09.2021 11:10 20,4 C 52 % 1015,5 hPa 0,0 l/m 0,0 km/h S-SW 204 0,0 km/h
18.09.2021 11:05 20,5 C 52 % 1015,6 hPa 0,0 l/m 0,0 km/h S-SW 208 1,6 km/h
18.09.2021 11:00 20,7 C 55 % 1015,6 hPa 0,0 l/m 0,0 km/h S-SW 197 1,6 km/h
18.09.2021 10:55 20,6 C 55 % 1015,6 hPa 0,0 l/m 0,0 km/h S 172 0,0 km/h
18.09.2021 10:50 20,4 C 59 % 1015,6 hPa 0,0 l/m 0,0 km/h S 172 0,0 km/h
18.09.2021 10:49 20,4 C 59 % 1015,6 hPa 0,0 l/m 0,0 km/h S 172 0,0 km/h
18.09.2021 10:45 20,2 C 59 % 1015,7 hPa 0,0 l/m 0,0 km/h S 172 1,6 km/h
18.09.2021 10:40 19,9 C 60 % 1015,6 hPa 0,0 l/m 0,0 km/h S 175 0,0 km/h
18.09.2021 10:35 19,8 C 63 % 1015,6 hPa 0,0 l/m 0,0 km/h S-SW 204 1,6 km/h
18.09.2021 10:29 19,7 C 64 % 1015,6 hPa 0,0 l/m 0,0 km/h S-SW 204 0,0 km/h
18.09.2021 10:25 19,2 C 64 % 1015,6 hPa 0,0 l/m 0,0 km/h S 169 0,0 km/h
_ Min-Zeit 07:00 12:25 17:00 - 17:00 - - 17:00
Minimum _ 7,8 C 42 % 1012,3 hPa - 0,0 km/h - - 0,0 km/h
_ Max-Zeit 13:40 21:10 08:05 17:00 11:59 - - 11:59
Maximum _ 22,3 C 80 % 1015,9 hPa 0,0 l/m 2,5 km/h
W-NW
- - 17,7 km/h
W-NW
Durchschnitt _ 14,5 C 70 % 1014,6 hPa #0,0 l/m 0,0 km/h N - 0,5 km/h